Time;durP1;ratioP1;P1;durP2;ratioP2;P2;SDS_P1;SDS_P2;PMS_P1;PMS_P2;Temp;Humidity;BMP_temperature;BMP_pressure;BME280_temperature;BME280_humidity;BME280_pressure;Samples;Min_cycle;Max_cycle;Signal;HPM_P1;HPM_P2
2022/09/13 00:00:17;;;;;;;4.13;3.73;;;12.90;99.90;;;;;;5026577;28;20458;-53
2022/09/13 00:02:44;;;;;;;6.00;4.00;;;12.90;99.90;;;;;;5028161;28;20572;-53
2022/09/13 00:05:10;;;;;;;5.40;3.57;;;12.90;99.90;;;;;;5030299;28;20940;-53
2022/09/13 00:07:37;;;;;;;3.90;3.60;;;13.00;99.90;;;;;;5026913;28;21554;-54
2022/09/13 00:10:04;;;;;;;4.67;4.27;;;13.00;99.90;;;;;;5030795;28;20463;-53
2022/09/13 00:12:32;;;;;;;7.83;3.27;;;13.00;99.90;;;;;;5028368;28;20491;-52
2022/09/13 00:14:59;;;;;;;3.50;3.30;;;13.00;99.90;;;;;;5030050;28;20517;-52
2022/09/13 00:17:26;;;;;;;3.90;3.60;;;13.00;99.90;;;;;;5025716;28;20462;-52
2022/09/13 00:19:53;;;;;;;5.43;4.10;;;13.00;99.90;;;;;;5029693;28;20462;-52
2022/09/13 00:22:19;;;;;;;6.47;3.63;;;13.10;99.90;;;;;;5026365;28;20478;-53
2022/09/13 00:24:46;;;;;;;5.10;4.17;;;13.10;99.90;;;;;;5028685;28;20463;-54
2022/09/13 00:27:13;;;;;;;3.43;3.13;;;13.10;99.90;;;;;;5027225;28;20885;-52
2022/09/13 00:29:41;;;;;;;3.87;3.57;;;13.10;99.90;;;;;;5027064;28;20505;-53
2022/09/13 00:32:07;;;;;;;3.77;3.47;;;13.10;99.90;;;;;;5023053;28;21058;-53
2022/09/13 00:34:34;;;;;;;4.63;3.60;;;13.20;99.90;;;;;;5027098;28;20460;-53
2022/09/13 00:37:01;;;;;;;8.63;4.13;;;13.20;99.90;;;;;;5029958;28;20525;-53
2022/09/13 00:39:28;;;;;;;3.77;3.47;;;13.20;99.90;;;;;;5026578;28;20462;-53
2022/09/13 00:41:55;;;;;;;3.33;3.10;;;13.20;99.90;;;;;;5028734;28;21173;-53
2022/09/13 00:44:53;;;;;;;3.70;3.40;;;13.20;99.90;;;;;;5029477;28;20880;-53
2022/09/13 00:47:23;;;;;;;4.07;3.20;;;13.20;99.90;;;;;;5027560;28;21020;-54
2022/09/13 00:49:53;;;;;;;4.20;3.20;;;13.20;99.90;;;;;;5023798;28;21034;-53
2022/09/13 00:52:22;;;;;;;4.03;3.73;;;13.20;99.90;;;;;;5025798;28;20536;-54
2022/09/13 00:54:53;;;;;;;5.67;3.40;;;13.20;99.90;;;;;;5024303;28;20464;-52
2022/09/13 00:57:24;;;;;;;6.80;3.80;;;13.10;99.90;;;;;;5028022;28;20513;-53
2022/09/13 00:59:56;;;;;;;4.00;3.60;;;13.10;99.90;;;;;;5024068;28;20462;-54
2022/09/13 01:02:23;;;;;;;5.00;3.33;;;13.10;99.90;;;;;;5026810;28;20597;-53
2022/09/13 01:04:50;;;;;;;3.40;3.10;;;13.10;99.90;;;;;;5027217;28;20459;-52
2022/09/13 01:07:18;;;;;;;3.80;2.77;;;13.20;99.90;;;;;;5029015;28;20463;-53
2022/09/13 01:09:48;;;;;;;4.67;3.93;;;13.10;99.90;;;;;;5024696;28;20458;-53
2022/09/13 01:12:22;;;;;;;3.97;3.57;;;13.10;99.90;;;;;;5026357;28;20566;-53
2022/09/13 01:14:51;;;;;;;3.40;3.10;;;13.10;99.90;;;;;;5028919;28;20449;-54
2022/09/13 01:17:19;;;;;;;4.20;3.10;;;13.10;99.90;;;;;;5034275;28;20458;-54
2022/09/13 01:19:46;;;;;;;3.20;2.90;;;13.10;99.90;;;;;;5026227;28;20779;-53
2022/09/13 01:22:52;;;;;;;3.20;2.90;;;13.10;99.90;;;;;;5024059;28;20515;-53
2022/09/13 01:25:50;;;;;;;4.20;3.20;;;13.10;99.90;;;;;;5027340;28;20463;-51
2022/09/13 01:28:51;;;;;;;3.27;2.93;;;13.10;99.90;;;;;;5025389;28;20510;-53
2022/09/13 01:31:27;;;;;;;5.70;3.00;;;13.10;99.90;;;;;;5020020;28;20518;-55
2022/09/13 01:34:09;;;;;;;3.83;3.53;;;13.10;99.90;;;;;;5027292;28;21031;-53
2022/09/13 01:36:52;;;;;;;10.90;3.10;;;13.00;99.90;;;;;;5025777;28;20471;-54
2022/09/13 01:39:33;;;;;;;3.33;3.13;;;13.00;99.90;;;;;;5024427;28;20604;-54
2022/09/13 01:42:10;;;;;;;5.47;3.77;;;13.00;99.90;;;;;;5028067;28;20486;-51
2022/09/13 01:44:56;;;;;;;44.57;5.20;;;13.00;99.90;;;;;;5025424;28;20486;-51
2022/09/13 01:47:29;;;;;;;5.13;2.73;;;13.00;99.90;;;;;;5022980;28;20499;-51
2022/09/13 01:50:06;;;;;;;2.80;2.60;;;13.00;99.90;;;;;;5023888;28;20509;-51
2022/09/13 01:52:42;;;;;;;3.63;3.43;;;13.00;99.90;;;;;;5021457;28;20484;-51
2022/09/13 01:55:13;;;;;;;3.10;2.90;;;13.00;99.90;;;;;;5025495;28;20454;-51
2022/09/13 01:57:46;;;;;;;2.80;2.60;;;13.00;99.90;;;;;;5027318;28;20548;-51
2022/09/13 02:00:15;;;;;;;2.80;2.60;;;12.90;99.90;;;;;;5021313;28;20499;-52
2022/09/13 02:02:49;;;;;;;4.60;2.83;;;12.80;99.90;;;;;;5024168;28;20479;-51
2022/09/13 02:05:25;;;;;;;4.17;3.60;;;12.80;99.90;;;;;;5024666;28;20541;-51
2022/09/13 02:07:57;;;;;;;5.77;3.50;;;12.80;99.90;;;;;;5029240;28;20840;-52
2022/09/13 02:10:29;;;;;;;4.70;3.27;;;12.70;99.90;;;;;;5023567;28;20455;-51
2022/09/13 02:12:58;;;;;;;3.37;3.17;;;12.70;99.90;;;;;;5024346;28;20523;-52
2022/09/13 02:15:31;;;;;;;3.77;3.03;;;12.60;99.90;;;;;;5024074;28;20498;-51
2022/09/13 02:18:05;;;;;;;3.37;3.10;;;12.60;99.90;;;;;;5025345;28;20471;-52
2022/09/13 02:20:35;;;;;;;3.10;2.90;;;12.60;99.90;;;;;;5024263;28;20467;-51
2022/09/13 02:23:04;;;;;;;6.53;3.10;;;12.60;99.90;;;;;;5022381;28;21055;-51
2022/09/13 02:25:36;;;;;;;2.70;2.57;;;12.60;99.90;;;;;;5030580;28;20459;-51
2022/09/13 02:28:07;;;;;;;3.23;2.67;;;12.50;99.90;;;;;;5036745;28;20493;-51
2022/09/13 02:30:39;;;;;;;3.50;3.20;;;12.50;99.90;;;;;;5024863;28;20486;-52
2022/09/13 02:33:11;;;;;;;2.57;2.37;;;12.50;99.90;;;;;;5027411;28;20482;-52
2022/09/13 02:35:43;;;;;;;2.60;2.47;;;12.50;99.90;;;;;;5026479;28;20459;-51
2022/09/13 02:38:14;;;;;;;3.40;3.10;;;12.50;99.90;;;;;;5025563;28;20626;-51
2022/09/13 02:40:45;;;;;;;3.03;2.83;;;12.50;99.90;;;;;;5030626;28;20485;-51
2022/09/13 02:43:17;;;;;;;3.20;3.00;;;12.60;99.90;;;;;;5024899;28;20986;-51
2022/09/13 02:45:48;;;;;;;3.20;2.87;;;12.60;99.90;;;;;;5024287;28;21041;-51
2022/09/13 02:48:22;;;;;;;3.30;3.00;;;12.70;99.90;;;;;;5029852;28;20494;-52
2022/09/13 02:50:58;;;;;;;3.80;3.47;;;12.70;99.90;;;;;;5025198;28;20965;-51
2022/09/13 02:53:30;;;;;;;7.17;2.67;;;12.70;99.90;;;;;;5022641;28;20559;-51
2022/09/13 02:56:04;;;;;;;3.20;3.00;;;12.80;99.90;;;;;;5032052;28;21007;-51
2022/09/13 02:58:35;;;;;;;2.50;2.40;;;12.80;99.90;;;;;;5031377;28;20551;-51
2022/09/13 03:01:02;;;;;;;7.70;4.60;;;12.80;99.90;;;;;;5022235;28;20518;-51
2022/09/13 03:03:30;;;;;;;3.70;3.40;;;12.90;99.90;;;;;;5028065;28;20489;-52
2022/09/13 03:05:56;;;;;;;2.60;2.50;;;12.90;99.90;;;;;;5032036;28;21191;-52
2022/09/13 03:08:24;;;;;;;3.10;2.80;;;12.90;99.90;;;;;;5028020;28;20466;-51
2022/09/13 03:10:59;;;;;;;3.13;2.93;;;12.90;99.90;;;;;;5022992;28;20522;-51
2022/09/13 03:13:54;;;;;;;3.13;2.90;;;12.90;99.90;;;;;;5029704;28;20543;-51
2022/09/13 03:16:41;;;;;;;3.10;2.87;;;12.90;99.90;;;;;;5023952;28;20529;-50
2022/09/13 03:19:23;;;;;;;3.10;3.00;;;12.90;99.90;;;;;;5046174;28;20546;-51
2022/09/13 03:22:07;;;;;;;3.30;3.10;;;13.00;99.90;;;;;;5027524;28;20485;-52
2022/09/13 03:24:47;;;;;;;3.10;2.90;;;13.00;99.90;;;;;;5029806;28;20888;-51
2022/09/13 03:27:23;;;;;;;3.93;2.83;;;13.00;99.90;;;;;;5036644;28;20891;-52
2022/09/13 03:29:55;;;;;;;2.70;2.60;;;13.00;99.90;;;;;;5030175;28;20454;-51
2022/09/13 03:32:29;;;;;;;3.20;3.00;;;13.00;99.90;;;;;;5025327;28;21031;-51
2022/09/13 03:35:07;;;;;;;3.10;2.87;;;13.00;93.20;;;;;;5024889;28;20517;-51
2022/09/13 03:37:42;;;;;;;3.63;3.03;;;13.10;73.90;;;;;;5029588;28;20543;-51
2022/09/13 03:40:13;;;;;;;3.20;2.90;;;13.10;20.60;;;;;;5030102;28;20544;-51
2022/09/13 03:42:44;;;;;;;3.37;3.17;;;13.10;20.80;;;;;;5027791;28;20527;-51
2022/09/13 03:45:13;;;;;;;3.60;3.40;;;13.10;21.80;;;;;;5025412;28;20490;-51
2022/09/13 03:47:43;;;;;;;3.20;3.00;;;13.20;23.90;;;;;;5031046;28;20490;-51
2022/09/13 03:50:15;;;;;;;3.30;3.00;;;13.20;28.30;;;;;;5026894;28;20788;-51
2022/09/13 03:52:43;;;;;;;4.17;3.87;;;13.20;27.80;;;;;;5029689;28;20509;-51
2022/09/13 03:55:10;;;;;;;6.37;2.90;;;13.20;35.90;;;;;;5032597;28;20622;-51
2022/09/13 03:57:37;;;;;;;4.00;3.00;;;13.20;35.10;;;;;;5029458;28;20508;-51
2022/09/13 04:00:04;;;;;;;3.63;3.13;;;13.30;36.60;;;;;;5029376;28;20552;-51
2022/09/13 04:02:31;;;;;;;5.07;3.47;;;13.30;41.50;;;;;;5026203;28;20563;-51
2022/09/13 04:04:58;;;;;;;3.30;3.00;;;13.30;43.80;;;;;;5025105;28;20454;-51
2022/09/13 04:07:26;;;;;;;5.20;4.03;;;13.30;43.50;;;;;;5025347;28;20459;-51
2022/09/13 04:09:52;;;;;;;3.17;2.97;;;13.30;43.50;;;;;;5031040;28;20463;-51
2022/09/13 04:12:19;;;;;;;4.00;3.70;;;13.30;43.80;;;;;;5026285;28;20514;-52
2022/09/13 04:14:46;;;;;;;3.30;3.10;;;13.30;44.50;;;;;;5027198;28;20572;-51
2022/09/13 04:17:14;;;;;;;4.30;3.57;;;13.40;44.40;;;;;;5028741;28;20541;-51
2022/09/13 04:19:43;;;;;;;4.17;3.77;;;13.30;47.80;;;;;;5028961;28;21183;-52
2022/09/13 04:22:10;;;;;;;3.17;2.97;;;13.30;43.00;;;;;;5028547;28;20479;-53
2022/09/13 04:24:38;;;;;;;3.90;3.60;;;13.30;39.80;;;;;;5021247;28;20491;-52
2022/09/13 04:27:06;;;;;;;3.73;3.10;;;13.30;42.40;;;;;;5029203;28;21043;-51
2022/09/13 04:29:32;;;;;;;3.73;3.53;;;13.30;43.20;;;;;;5025959;28;20490;-51
2022/09/13 04:32:00;;;;;;;4.10;3.80;;;13.40;44.40;;;;;;5024508;28;20950;-51
2022/09/13 04:34:26;;;;;;;3.67;3.43;;;13.30;44.20;;;;;;5025058;28;20514;-50
2022/09/13 04:36:54;;;;;;;4.93;3.60;;;13.40;46.10;;;;;;5026706;28;20907;-51
2022/09/13 04:39:22;;;;;;;3.87;3.57;;;13.30;45.40;;;;;;5025040;28;20467;-51
2022/09/13 04:41:53;;;;;;;4.27;3.97;;;13.40;44.50;;;;;;5024462;28;20474;-52
2022/09/13 04:44:20;;;;;;;5.57;3.80;;;13.30;45.00;;;;;;5019506;28;20938;-53
2022/09/13 04:46:48;;;;;;;4.60;3.67;;;13.40;44.50;;;;;;5024183;28;20467;-52
2022/09/13 04:49:15;;;;;;;3.73;3.37;;;13.40;45.20;;;;;;5026326;28;20483;-53
2022/09/13 04:51:42;;;;;;;3.43;3.23;;;13.40;45.50;;;;;;5024341;28;20483;-53
2022/09/13 04:54:10;;;;;;;3.40;3.20;;;13.40;44.60;;;;;;5022994;28;20514;-52
2022/09/13 04:56:37;;;;;;;6.40;4.03;;;13.50;44.30;;;;;;5021802;28;20455;-52
2022/09/13 04:59:04;;;;;;;5.00;4.00;;;13.50;49.90;;;;;;5030300;28;20494;-53
2022/09/13 05:01:31;;;;;;;3.97;3.67;;;13.50;48.60;;;;;;5018008;28;22263;-52
2022/09/13 05:03:58;;;;;;;5.77;3.80;;;13.60;48.30;;;;;;5027691;28;20984;-52
2022/09/13 05:06:25;;;;;;;4.27;3.80;;;13.60;45.50;;;;;;5020972;28;20533;-53
2022/09/13 05:08:54;;;;;;;4.40;4.10;;;13.60;48.00;;;;;;5022131;28;20521;-54
2022/09/13 05:11:22;;;;;;;4.93;3.93;;;13.60;48.40;;;;;;5017600;28;20479;-54
2022/09/13 05:13:53;;;;;;;5.13;3.90;;;13.60;48.80;;;;;;5029970;28;20510;-53
2022/09/13 05:16:21;;;;;;;11.10;4.70;;;13.70;48.50;;;;;;5023845;28;20465;-52
2022/09/13 05:18:49;;;;;;;5.53;4.20;;;13.70;43.50;;;;;;5023293;28;21006;-54
2022/09/13 05:21:15;;;;;;;4.60;4.20;;;13.70;41.40;;;;;;5019256;28;20491;-53
2022/09/13 05:23:42;;;;;;;6.30;4.37;;;13.70;34.60;;;;;;5020022;28;20457;-53
2022/09/13 05:26:09;;;;;;;5.93;5.00;;;13.60;26.30;;;;;;5017518;28;20495;-52
2022/09/13 05:28:36;;;;;;;8.00;6.33;;;13.60;99.90;;;;;;5018458;28;20499;-53
2022/09/13 05:31:05;;;;;;;9.47;4.60;;;13.60;99.90;;;;;;5018003;28;20521;-52
2022/09/13 05:33:35;;;;;;;8.77;5.20;;;13.50;99.90;;;;;;5018285;28;20571;-53
2022/09/13 05:36:02;;;;;;;4.70;4.30;;;13.50;99.90;;;;;;5020163;28;20502;-52
2022/09/13 05:38:29;;;;;;;5.03;4.63;;;13.40;99.90;;;;;;5021432;28;20466;-53
2022/09/13 05:40:57;;;;;;;6.43;4.90;;;13.40;99.90;;;;;;5026122;28;20577;-52
2022/09/13 05:43:24;;;;;;;5.00;4.60;;;13.40;99.90;;;;;;5019639;28;20463;-52
2022/09/13 05:45:51;;;;;;;4.53;4.20;;;13.30;99.90;;;;;;5017635;28;20503;-54
2022/09/13 05:48:17;;;;;;;4.87;4.47;;;13.30;99.90;;;;;;5022672;28;20494;-53
2022/09/13 05:50:46;;;;;;;5.13;4.73;;;13.30;99.90;;;;;;5021975;28;20490;-53
2022/09/13 05:53:12;;;;;;;6.00;5.40;;;13.30;99.90;;;;;;5019912;28;20554;-52
2022/09/13 05:55:39;;;;;;;6.07;5.10;;;13.30;99.90;;;;;;5016450;28;20487;-53
2022/09/13 05:58:05;;;;;;;5.67;4.53;;;13.30;99.90;;;;;;5020056;28;20494;-53
2022/09/13 06:00:32;;;;;;;5.97;5.10;;;13.30;99.90;;;;;;5023213;28;20491;-52
2022/09/13 06:02:59;;;;;;;5.67;5.10;;;13.30;99.90;;;;;;5020466;28;20955;-52
2022/09/13 06:05:26;;;;;;;5.20;4.80;;;13.30;99.90;;;;;;5019578;28;21242;-53
2022/09/13 06:07:53;;;;;;;5.47;4.97;;;13.30;99.90;;;;;;5027654;28;20487;-53
2022/09/13 06:10:21;;;;;;;5.33;4.83;;;13.30;99.90;;;;;;5031928;28;20502;-53
2022/09/13 06:12:50;;;;;;;4.90;4.50;;;13.30;99.90;;;;;;5021428;28;20487;-52
2022/09/13 06:15:17;;;;;;;5.27;4.87;;;13.30;99.90;;;;;;5021916;28;22449;-53
2022/09/13 06:17:43;;;;;;;5.90;5.00;;;13.30;99.80;;;;;;5027352;28;20509;-56
2022/09/13 06:20:10;;;;;;;5.50;5.00;;;13.30;99.70;;;;;;5022711;28;20972;-52
2022/09/13 06:22:37;;;;;;;7.27;5.80;;;13.30;98.20;;;;;;5024244;28;20524;-53
2022/09/13 06:25:06;;;;;;;6.23;5.77;;;13.30;98.10;;;;;;5033693;28;20462;-52
2022/09/13 06:27:32;;;;;;;6.30;5.70;;;13.30;96.50;;;;;;5036363;28;20543;-54
2022/09/13 06:29:59;;;;;;;8.30;5.67;;;13.30;95.60;;;;;;5020528;28;20483;-53
2022/09/13 06:32:26;;;;;;;5.47;5.07;;;13.30;93.50;;;;;;5022726;28;20536;-53
2022/09/13 06:34:52;;;;;;;14.10;5.80;;;13.30;90.30;;;;;;5024335;28;21199;-52
2022/09/13 06:37:20;;;;;;;5.57;5.10;;;13.30;89.30;;;;;;5024446;28;20980;-52
2022/09/13 06:39:47;;;;;;;6.73;6.03;;;13.30;88.20;;;;;;5028907;28;20454;-52
2022/09/13 06:42:15;;;;;;;6.93;6.33;;;13.30;84.70;;;;;;5022872;28;20522;-54
2022/09/13 06:44:41;;;;;;;12.37;5.67;;;13.30;81.90;;;;;;5024949;28;20517;-53
2022/09/13 06:47:08;;;;;;;11.30;6.80;;;13.40;78.50;;;;;;5021962;28;21093;-52
2022/09/13 06:49:35;;;;;;;6.77;6.10;;;13.40;74.40;;;;;;5025341;28;20623;-53
2022/09/13 06:52:02;;;;;;;7.25;6.05;;;13.50;72.50;;;;;;5018477;28;20490;-54
2022/09/13 06:54:28;;;;;;;7.93;5.90;;;13.50;70.40;;;;;;5022273;28;20336;-53
2022/09/13 06:56:55;;;;;;;7.17;6.50;;;13.50;66.60;;;;;;5019121;28;20483;-54
2022/09/13 06:59:23;;;;;;;10.60;5.90;;;13.50;64.70;;;;;;5022793;28;20560;-54
2022/09/13 07:01:49;;;;;;;7.73;6.60;;;13.50;64.60;;;;;;5024585;28;20594;-54
2022/09/13 07:04:18;;;;;;;9.47;5.90;;;13.50;63.90;;;;;;5020449;28;20495;-54
2022/09/13 07:06:47;;;;;;;10.23;5.80;;;13.60;61.70;;;;;;5014682;28;20466;-52
2022/09/13 07:09:16;;;;;;;7.90;6.60;;;13.60;60.70;;;;;;5025152;28;20442;-53
2022/09/13 07:11:44;;;;;;;7.50;6.80;;;13.60;59.90;;;;;;5017720;28;20475;-53
2022/09/13 07:14:14;;;;;;;7.53;6.63;;;13.70;59.20;;;;;;5024501;28;20506;-53
2022/09/13 07:16:42;;;;;;;12.40;6.70;;;13.70;58.40;;;;;;5020725;28;20458;-53
2022/09/13 07:19:13;;;;;;;6.90;6.20;;;13.70;57.40;;;;;;5026377;28;20470;-53
2022/09/13 07:21:40;;;;;;;6.97;6.27;;;13.80;55.50;;;;;;5022953;28;20533;-52
2022/09/13 07:24:06;;;;;;;7.50;6.63;;;13.80;55.20;;;;;;5025281;28;20498;-55
2022/09/13 07:26:33;;;;;;;12.93;6.83;;;13.80;55.30;;;;;;5018967;28;20463;-54
2022/09/13 07:29:02;;;;;;;8.10;6.67;;;13.90;55.00;;;;;;5014892;28;21406;-54
2022/09/13 07:31:31;;;;;;;14.57;6.67;;;13.90;53.40;;;;;;5020747;28;20509;-52
2022/09/13 07:34:00;;;;;;;7.57;6.50;;;14.00;53.40;;;;;;5016574;28;20566;-54
2022/09/13 07:36:29;;;;;;;8.30;5.87;;;14.00;53.70;;;;;;5022954;28;20483;-53
2022/09/13 07:38:56;;;;;;;8.03;7.23;;;14.10;55.40;;;;;;5017284;28;20461;-54
2022/09/13 07:41:24;;;;;;;7.97;6.90;;;14.10;56.80;;;;;;5021736;28;20613;-52
2022/09/13 07:43:51;;;;;;;9.20;7.20;;;14.20;58.50;;;;;;5026842;28;20541;-53
2022/09/13 07:46:20;;;;;;;7.23;6.53;;;14.20;58.80;;;;;;5026545;28;20455;-54
2022/09/13 07:48:48;;;;;;;9.10;7.30;;;14.30;60.80;;;;;;5026895;28;20554;-52
2022/09/13 07:51:18;;;;;;;8.30;6.93;;;14.40;60.40;;;;;;5031318;28;20485;-54
2022/09/13 07:53:46;;;;;;;7.80;6.87;;;14.40;64.30;;;;;;5026620;28;20585;-53
2022/09/13 07:56:14;;;;;;;9.00;7.70;;;14.50;66.50;;;;;;5033625;28;20510;-54
2022/09/13 07:58:43;;;;;;;10.33;7.10;;;14.50;67.60;;;;;;5023258;28;20490;-53
2022/09/13 08:01:12;;;;;;;8.83;7.93;;;14.60;68.20;;;;;;5022499;28;20572;-53
2022/09/13 08:03:39;;;;;;;7.20;6.50;;;14.60;70.90;;;;;;5026911;28;20870;-52
2022/09/13 08:06:07;;;;;;;7.37;6.60;;;14.70;73.00;;;;;;5029768;28;21204;-53
2022/09/13 08:08:36;;;;;;;6.93;6.33;;;14.70;80.70;;;;;;5032671;28;20495;-54
2022/09/13 08:11:04;;;;;;;7.77;6.40;;;14.80;86.00;;;;;;5027580;28;20499;-53
2022/09/13 08:13:32;;;;;;;8.07;7.27;;;14.90;87.80;;;;;;5013234;28;20509;-52
2022/09/13 08:16:01;;;;;;;8.27;7.37;;;15.00;89.00;;;;;;5021701;28;20884;-54
2022/09/13 08:18:28;;;;;;;10.00;7.77;;;15.00;98.50;;;;;;5031223;28;20469;-54
2022/09/13 08:20:56;;;;;;;18.90;8.17;;;15.10;99.90;;;;;;5026158;28;20490;-53
2022/09/13 08:23:23;;;;;;;13.53;8.40;;;15.10;99.90;;;;;;5030439;28;20952;-53
2022/09/13 08:25:51;;;;;;;8.70;7.80;;;15.10;99.90;;;;;;5032362;28;20932;-53
2022/09/13 08:28:20;;;;;;;10.40;8.73;;;15.10;99.90;;;;;;5030234;28;20501;-53
2022/09/13 08:30:47;;;;;;;8.63;7.73;;;15.20;99.90;;;;;;5029205;28;20458;-53
2022/09/13 08:33:14;;;;;;;9.43;8.40;;;15.20;99.90;;;;;;5031756;28;20494;-53
2022/09/13 08:35:49;;;;;;;21.30;8.37;;;15.30;99.90;;;;;;5026459;28;20522;-53
2022/09/13 08:38:15;;;;;;;8.00;7.13;;;15.40;99.90;;;;;;5026918;28;20467;-53
2022/09/13 08:40:45;;;;;;;11.83;8.43;;;15.40;99.90;;;;;;5028448;28;20498;-54
2022/09/13 08:43:21;;;;;;;7.73;7.00;;;15.40;99.90;;;;;;5022824;28;20505;-53
2022/09/13 08:45:54;;;;;;;10.43;8.87;;;15.50;99.90;;;;;;5022750;28;20492;-54
2022/09/13 08:48:28;;;;;;;8.73;7.47;;;15.50;99.90;;;;;;5022099;28;20506;-53
2022/09/13 08:51:01;;;;;;;8.67;7.87;;;15.50;99.90;;;;;;5023701;28;20491;-52
2022/09/13 08:53:30;;;;;;;11.17;8.00;;;15.60;99.90;;;;;;5031565;28;20445;-55
2022/09/13 08:56:04;;;;;;;8.60;7.73;;;15.70;99.90;;;;;;5030622;28;20915;-53
2022/09/13 08:58:55;;;;;;;18.73;8.60;;;15.90;99.90;;;;;;5025505;28;20580;-53
2022/09/13 09:01:34;;;;;;;8.90;8.03;;;15.90;99.90;;;;;;5020259;28;20518;-53
2022/09/13 09:04:06;;;;;;;11.53;8.60;;;16.00;99.90;;;;;;5028368;28;20462;-54
2022/09/13 09:06:34;;;;;;;9.47;7.87;;;16.10;99.90;;;;;;5028582;28;20552;-53
2022/09/13 09:09:06;;;;;;;12.00;10.47;;;16.20;99.90;;;;;;5026901;28;20482;-52
2022/09/13 09:11:41;;;;;;;13.80;9.13;;;16.30;99.90;;;;;;5029682;28;20560;-51
2022/09/13 09:14:19;;;;;;;11.63;7.80;;;16.30;99.90;;;;;;5037622;28;20462;-53
2022/09/13 09:16:50;;;;;;;14.03;9.07;;;16.50;99.90;;;;;;5029833;28;20534;-51
2022/09/13 09:19:23;;;;;;;10.03;7.70;;;16.60;99.90;;;;;;5033949;28;20498;-52
2022/09/13 09:21:51;;;;;;;12.30;8.67;;;16.70;99.90;;;;;;5042588;28;20505;-52
2022/09/13 09:24:21;;;;;;;10.10;9.00;;;16.90;99.90;;;;;;5029525;28;20471;-52
2022/09/13 09:26:48;;;;;;;9.53;8.33;;;17.00;99.90;;;;;;5027437;28;20906;-52
2022/09/13 09:29:24;;;;;;;12.70;8.30;;;17.10;99.90;;;;;;5027408;28;20470;-53
2022/09/13 09:32:00;;;;;;;10.23;7.80;;;17.30;99.90;;;;;;5023934;28;21061;-52
2022/09/13 09:34:42;;;;;;;9.87;8.83;;;17.40;99.90;;;;;;5031321;28;20489;-53
2022/09/13 09:37:15;;;;;;;14.13;8.47;;;17.50;90.00;;;;;;5028544;28;20446;-52
2022/09/13 09:39:43;;;;;;;10.83;8.97;;;17.60;35.60;;;;;;5012404;28;20448;-51
2022/09/13 09:42:13;;;;;;;8.67;7.77;;;17.50;44.00;;;;;;5024889;28;20497;-52
2022/09/13 09:44:44;;;;;;;12.00;8.33;;;17.60;40.90;;;;;;5030089;28;20450;-53
2022/09/13 09:47:14;;;;;;;10.23;8.73;;;17.70;31.90;;;;;;5026216;28;20494;-53
2022/09/13 09:52:33;;;;;;;11.87;8.60;;;17.80;49.10;;;;;;5021202;28;20491;-53
2022/09/13 09:55:11;;;;;;;13.43;9.70;;;17.90;58.70;;;;;;5022312;28;20498;-53
2022/09/13 09:57:56;;;;;;;11.47;9.10;;;17.80;67.10;;;;;;5031538;28;20585;-54
2022/09/13 10:00:27;;;;;;;10.30;7.77;;;17.90;68.00;;;;;;5022526;28;20512;-54
2022/09/13 10:02:58;;;;;;;11.63;9.23;;;18.00;61.30;;;;;;5018345;28;20497;-56
2022/09/13 10:05:26;;;;;;;12.23;9.90;;;18.00;60.80;;;;;;5024301;28;20503;-54
2022/09/13 10:07:58;;;;;;;11.23;9.00;;;18.10;75.70;;;;;;5025039;28;20454;-53
2022/09/13 10:10:32;;;;;;;10.40;7.83;;;18.10;82.60;;;;;;5022938;28;20487;-52
2022/09/13 10:12:59;;;;;;;8.80;7.90;;;18.10;81.90;;;;;;5021856;28;20475;-52
2022/09/13 10:15:33;;;;;;;18.47;8.90;;;18.10;91.30;;;;;;5015376;28;21001;-54
2022/09/13 10:18:07;;;;;;;9.63;7.30;;;18.10;89.90;;;;;;5019283;28;20475;-53
2022/09/13 10:20:34;;;;;;;9.57;7.83;;;18.00;84.70;;;;;;5024592;28;20474;-53
2022/09/13 10:23:20;;;;;;;9.03;8.10;;;18.00;64.60;;;;;;5018878;28;20495;-54
2022/09/13 10:26:03;;;;;;;11.13;8.10;;;18.00;83.20;;;;;;5025313;28;20451;-52
2022/09/13 10:28:32;;;;;;;10.80;7.80;;;18.00;74.80;;;;;;5023220;28;20486;-52
2022/09/13 10:31:04;;;;;;;11.90;8.37;;;18.00;71.90;;;;;;5023855;28;20475;-53
2022/09/13 10:33:33;;;;;;;8.37;7.53;;;17.90;82.90;;;;;;5019389;28;22500;-53
2022/09/13 10:36:04;;;;;;;8.03;6.70;;;18.00;73.60;;;;;;5022485;28;20490;-53
2022/09/13 10:38:33;;;;;;;12.93;8.00;;;17.90;71.00;;;;;;5018623;28;20459;-54
2022/09/13 10:41:04;;;;;;;8.77;7.47;;;17.90;66.70;;;;;;5018861;28;21096;-53
2022/09/13 10:43:32;;;;;;;9.90;7.63;;;17.80;50.60;;;;;;5024470;28;21104;-54
2022/09/13 10:46:02;;;;;;;11.13;8.07;;;17.80;20.70;;;;;;5023056;28;20949;-54
2022/09/13 10:48:30;;;;;;;15.03;8.80;;;17.70;99.90;;;;;;5025458;28;20483;-54
2022/09/13 10:51:21;;;;;;;9.93;8.07;;;17.70;99.90;;;;;;5017595;28;20526;-54
2022/09/13 10:53:48;;;;;;;12.30;8.77;;;17.60;99.90;;;;;;5022460;28;20889;-53
2022/09/13 10:56:20;;;;;;;11.50;9.00;;;17.50;99.90;;;;;;5023139;28;20979;-53
2022/09/13 10:58:47;;;;;;;12.67;9.93;;;17.40;99.90;;;;;;5021285;28;20497;-53
2022/09/13 11:01:35;;;;;;;11.07;9.33;;;17.40;99.90;;;;;;5019548;28;20714;-53
2022/09/13 11:04:37;;;;;;;15.13;10.20;;;17.30;99.90;;;;;;5019985;28;20979;-54
2022/09/13 11:07:18;;;;;;;10.90;9.70;;;17.20;99.90;;;;;;5024616;28;20435;-54
2022/09/13 11:09:52;;;;;;;11.53;10.00;;;17.10;99.90;;;;;;5014355;28;20475;-52
2022/09/13 11:12:25;;;;;;;13.10;10.30;;;17.00;99.90;;;;;;5025950;28;20472;-53
2022/09/13 11:15:04;;;;;;;16.67;9.87;;;17.00;99.90;;;;;;5027779;28;21054;-53
2022/09/13 11:17:57;;;;;;;11.07;9.90;;;16.90;99.90;;;;;;5026954;28;20584;-55
2022/09/13 11:20:33;;;;;;;31.23;11.70;;;16.90;97.00;;;;;;5007175;28;20494;-54
2022/09/13 11:23:36;;;;;;;11.80;10.53;;;16.80;90.30;;;;;;5018214;28;20522;-54
2022/09/13 11:26:18;;;;;;;13.57;9.60;;;16.80;88.00;;;;;;5022526;28;20496;-54
2022/09/13 11:28:58;;;;;;;13.73;10.43;;;16.90;83.20;;;;;;5022305;28;20463;-53
2022/09/13 11:31:38;;;;;;;14.20;11.17;;;16.90;82.90;;;;;;5024034;28;20517;-53
2022/09/13 11:34:16;;;;;;;16.43;12.30;;;16.90;82.50;;;;;;5024008;28;21066;-53
2022/09/13 11:37:05;;;;;;;14.17;11.17;;;16.90;80.40;;;;;;5031787;28;20548;-54
2022/09/13 11:39:35;;;;;;;18.13;12.00;;;17.00;77.60;;;;;;5015431;28;21076;-56
2022/09/13 11:42:16;;;;;;;13.93;11.30;;;17.00;75.40;;;;;;5027618;28;21146;-54
2022/09/13 11:45:08;;;;;;;15.07;11.53;;;17.00;74.30;;;;;;5028825;28;20509;-54
2022/09/13 11:47:46;;;;;;;18.77;12.77;;;17.00;72.30;;;;;;5029025;28;20940;-53
2022/09/13 11:50:26;;;;;;;17.40;12.27;;;17.00;71.50;;;;;;5033801;28;21037;-54
2022/09/13 11:53:04;;;;;;;13.97;11.00;;;17.00;71.60;;;;;;5020424;28;20548;-52
2022/09/13 11:55:37;;;;;;;14.83;11.23;;;17.00;70.40;;;;;;5026640;28;20509;-53
2022/09/13 11:58:11;;;;;;;11.60;9.70;;;17.10;69.30;;;;;;5028831;28;20501;-53
2022/09/13 12:00:44;;;;;;;13.80;10.67;;;17.10;66.40;;;;;;5029433;28;20459;-53
2022/09/13 12:03:19;;;;;;;12.10;9.73;;;17.10;68.70;;;;;;5031209;28;20494;-53
2022/09/13 12:05:51;;;;;;;11.60;10.37;;;17.00;70.00;;;;;;5023213;28;20517;-54
2022/09/13 12:08:21;;;;;;;13.30;10.10;;;17.00;71.50;;;;;;5030716;28;21084;-52
2022/09/13 12:10:53;;;;;;;13.30;10.80;;;17.00;69.70;;;;;;5026023;28;20515;-55
2022/09/13 12:13:24;;;;;;;10.87;9.37;;;17.00;70.40;;;;;;5026664;28;20545;-54
2022/09/13 12:15:54;;;;;;;11.77;10.37;;;17.00;67.80;;;;;;5029603;28;20458;-54
2022/09/13 12:18:26;;;;;;;18.70;11.43;;;16.90;66.30;;;;;;5029608;28;20502;-52
2022/09/13 12:20:59;;;;;;;13.50;11.70;;;16.90;62.60;;;;;;5030216;28;20455;-53
2022/09/13 12:23:31;;;;;;;12.87;10.50;;;17.00;59.90;;;;;;5028224;28;20494;-51
2022/09/13 12:26:01;;;;;;;14.80;11.33;;;17.10;57.60;;;;;;5025128;28;20930;-53
2022/09/13 12:28:33;;;;;;;16.53;11.43;;;17.10;54.80;;;;;;5028787;28;20491;-52
2022/09/13 12:31:06;;;;;;;18.10;12.87;;;17.20;49.20;;;;;;5022314;28;20522;-53
2022/09/13 12:33:34;;;;;;;17.17;12.80;;;17.30;41.30;;;;;;5026892;28;20539;-52
2022/09/13 12:36:24;;;;;;;15.43;12.93;;;17.30;36.20;;;;;;5025543;28;20581;-52
2022/09/13 12:39:23;;;;;;;14.80;12.10;;;17.30;35.80;;;;;;5019164;28;20454;-52
2022/09/13 12:42:03;;;;;;;20.67;13.20;;;17.40;34.90;;;;;;5024982;28;20831;-53
2022/09/13 12:44:55;;;;;;;14.00;12.50;;;17.40;32.90;;;;;;5025189;28;20486;-53
2022/09/13 12:47:54;;;;;;;18.70;11.97;;;17.40;28.80;;;;;;5024146;28;20498;-53
2022/09/13 12:50:46;;;;;;;17.33;10.77;;;17.40;34.30;;;;;;5018951;28;20538;-53
2022/09/13 12:53:44;;;;;;;13.23;10.77;;;17.30;36.80;;;;;;4988979;28;21003;-53
2022/09/13 12:56:46;;;;;;;13.40;8.87;;;17.30;35.10;;;;;;5025062;28;20549;-53
2022/09/13 12:59:34;;;;;;;12.73;8.73;;;17.30;29.50;;;;;;5022428;28;20520;-52
2022/09/13 13:02:02;;;;;;;9.77;6.43;;;17.40;25.10;;;;;;5016649;28;20862;-53
2022/09/13 13:04:32;;;;;;;6.73;5.63;;;17.50;25.50;;;;;;5023905;28;20473;-52
2022/09/13 13:07:01;;;;;;;12.83;6.77;;;17.40;29.00;;;;;;5026321;28;20479;-53
2022/09/13 13:09:39;;;;;;;7.97;4.43;;;17.60;30.70;;;;;;5026641;28;20485;-53